createdAt,value
2022-11-26T00:02:23.027Z,9.07
2022-11-26T00:04:52.795Z,7.93
2022-11-26T00:07:26.081Z,8.40
2022-11-26T00:09:55.108Z,7.33
2022-11-26T00:12:27.532Z,8.17
2022-11-26T00:14:56.481Z,8.80
2022-11-26T00:17:24.940Z,7.70
2022-11-26T00:19:53.222Z,8.77
2022-11-26T00:22:27.702Z,7.20
2022-11-26T00:24:57.049Z,7.60
2022-11-26T00:27:29.182Z,7.60
2022-11-26T00:29:58.510Z,6.93
2022-11-26T00:32:27.699Z,7.30
2022-11-26T00:34:56.094Z,7.43
2022-11-26T00:37:29.685Z,7.63
2022-11-26T00:39:59.046Z,6.90
2022-11-26T00:42:28.791Z,6.73
2022-11-26T00:44:57.170Z,6.70
2022-11-26T00:47:25.580Z,6.37
2022-11-26T00:49:53.863Z,5.43
2022-11-26T00:52:34.014Z,5.60
2022-11-26T00:55:11.245Z,5.67
2022-11-26T00:57:40.989Z,5.80
2022-11-26T01:00:20.438Z,4.77
2022-11-26T01:02:49.107Z,5.00
2022-11-26T01:05:18.252Z,5.10
2022-11-26T01:07:47.286Z,6.00
2022-11-26T01:10:21.095Z,5.10
2022-11-26T01:12:52.018Z,5.00
2022-11-26T01:15:23.644Z,5.27
2022-11-26T01:17:53.824Z,5.10
2022-11-26T01:20:27.685Z,5.20
2022-11-26T01:22:57.880Z,5.20
2022-11-26T01:25:27.735Z,5.17
2022-11-26T01:27:57.463Z,5.23
2022-11-26T01:30:28.635Z,4.70
2022-11-26T01:32:56.983Z,5.93
2022-11-26T01:35:25.205Z,5.27
2022-11-26T01:37:53.484Z,5.07
2022-11-26T01:41:11.752Z,6.03
2022-11-26T01:43:44.413Z,5.60
2022-11-26T01:46:16.822Z,4.90
2022-11-26T01:48:46.443Z,5.07
2022-11-26T01:51:17.193Z,5.03
2022-11-26T01:53:51.220Z,5.20
2022-11-26T01:56:28.376Z,6.00
2022-11-26T01:59:04.567Z,5.40
2022-11-26T02:01:34.314Z,5.83
2022-11-26T02:04:14.551Z,6.07
2022-11-26T02:06:45.316Z,5.53
2022-11-26T02:09:14.923Z,5.60
2022-11-26T02:11:43.658Z,5.13
2022-11-26T02:14:17.155Z,5.50
2022-11-26T02:17:19.439Z,5.80
2022-11-26T02:20:26.255Z,5.50
2022-11-26T02:23:48.091Z,5.10
2022-11-26T02:26:54.172Z,5.83
2022-11-26T02:29:30.948Z,5.53
2022-11-26T02:32:07.600Z,5.93
2022-11-26T02:34:41.850Z,5.80
2022-11-26T02:37:16.238Z,6.53
2022-11-26T02:39:44.574Z,6.87
2022-11-26T02:42:27.560Z,6.07
2022-11-26T02:44:59.237Z,5.43
2022-11-26T02:47:30.941Z,5.87
2022-11-26T02:50:04.194Z,6.00
2022-11-26T02:52:34.889Z,5.80
2022-11-26T02:55:07.579Z,6.87
2022-11-26T02:57:43.490Z,6.57
2022-11-26T03:00:13.310Z,5.80
2022-11-26T03:02:48.269Z,5.70
2022-11-26T03:05:19.166Z,6.13
2022-11-26T03:07:49.488Z,5.73
2022-11-26T03:10:20.232Z,6.10
2022-11-26T03:12:48.884Z,5.87
2022-11-26T03:15:17.351Z,6.17
2022-11-26T03:17:47.045Z,5.13
2022-11-26T03:20:15.710Z,4.87
2022-11-26T03:22:44.539Z,5.30
2022-11-26T03:25:13.182Z,5.30
2022-11-26T03:27:41.422Z,5.03
2022-11-26T03:30:11.211Z,6.50
2022-11-26T03:32:39.555Z,5.90
2022-11-26T03:35:10.405Z,4.83
2022-11-26T03:37:38.784Z,4.80
2022-11-26T03:40:10.068Z,5.47
2022-11-26T03:42:38.738Z,5.20
2022-11-26T03:45:08.332Z,6.00
2022-11-26T03:47:36.632Z,4.90
2022-11-26T03:50:05.750Z,5.70
2022-11-26T03:52:35.490Z,5.20
2022-11-26T03:55:03.816Z,5.23
2022-11-26T03:57:32.147Z,5.17
2022-11-26T04:00:00.386Z,4.67
2022-11-26T04:02:29.490Z,4.63
2022-11-26T04:04:57.672Z,4.77
2022-11-26T04:07:25.947Z,5.43
2022-11-26T04:09:55.598Z,4.30
2022-11-26T04:12:23.798Z,4.63
2022-11-26T04:14:52.050Z,4.43
2022-11-26T04:17:20.247Z,4.40
2022-11-26T04:19:48.515Z,4.10
2022-11-26T04:22:16.804Z,4.40
2022-11-26T04:24:45.064Z,4.50
2022-11-26T04:27:14.691Z,4.27
2022-11-26T04:29:42.944Z,3.93
2022-11-26T04:32:11.200Z,4.83
2022-11-26T04:34:39.767Z,4.57
2022-11-26T04:37:08.218Z,4.50
2022-11-26T04:39:37.475Z,4.93
2022-11-26T04:42:06.015Z,4.87
2022-11-26T04:44:35.993Z,4.77
2022-11-26T04:47:04.444Z,5.20
2022-11-26T04:49:32.729Z,4.80
2022-11-26T04:52:00.983Z,5.13
2022-11-26T04:54:29.223Z,5.13
2022-11-26T04:56:57.504Z,5.13
2022-11-26T04:59:25.851Z,5.20
2022-11-26T05:01:55.495Z,5.03
2022-11-26T05:04:23.915Z,4.80
2022-11-26T05:06:52.250Z,4.97
2022-11-26T05:09:20.544Z,5.40
2022-11-26T05:11:48.908Z,4.80
2022-11-26T05:14:17.387Z,5.30
2022-11-26T05:16:45.747Z,5.87
2022-11-26T05:19:15.460Z,4.47
2022-11-26T05:21:44.053Z,4.97
2022-11-26T05:24:12.324Z,4.93
2022-11-26T05:26:40.564Z,4.90
2022-11-26T05:29:08.828Z,5.37
2022-11-26T05:31:37.202Z,4.97
2022-11-26T05:34:05.606Z,4.60
2022-11-26T05:36:35.241Z,4.40
2022-11-26T05:39:03.614Z,4.50
2022-11-26T05:41:31.892Z,4.33
2022-11-26T05:44:00.130Z,4.00
2022-11-26T05:46:28.558Z,4.33
2022-11-26T05:48:56.847Z,4.50
2022-11-26T05:51:25.226Z,4.53
2022-11-26T05:53:54.811Z,4.67
2022-11-26T05:56:23.074Z,4.70
2022-11-26T05:58:51.445Z,5.07
2022-11-26T06:01:19.831Z,4.77
2022-11-26T06:03:48.245Z,4.73
2022-11-26T06:06:16.566Z,4.87
2022-11-26T06:08:44.833Z,4.73
2022-11-26T06:11:14.574Z,5.47
2022-11-26T06:13:42.908Z,5.03
2022-11-26T06:16:11.545Z,5.53
2022-11-26T06:18:40.534Z,5.10
2022-11-26T06:21:09.406Z,4.63
2022-11-26T06:23:37.767Z,5.27
2022-11-26T06:26:11.314Z,5.70
2022-11-26T06:28:41.345Z,5.60
2022-11-26T06:31:11.046Z,5.57
2022-11-26T06:33:39.430Z,5.57
2022-11-26T06:36:08.115Z,5.80
2022-11-26T06:38:36.399Z,5.20
2022-11-26T06:41:08.408Z,5.60
2022-11-26T06:43:37.480Z,6.13
2022-11-26T06:46:10.037Z,5.40
2022-11-26T06:48:39.490Z,5.80
2022-11-26T06:51:09.388Z,5.27
2022-11-26T06:53:37.993Z,5.70
2022-11-26T06:56:14.805Z,5.30
2022-11-26T06:58:46.842Z,4.60
2022-11-26T07:01:20.791Z,5.23
2022-11-26T07:03:49.413Z,5.00
2022-11-26T07:06:20.267Z,6.13
2022-11-26T07:08:49.172Z,5.20
2022-11-26T07:11:18.082Z,5.43
2022-11-26T07:13:46.641Z,5.53
2022-11-26T07:16:16.972Z,5.37
2022-11-26T07:18:49.984Z,5.93
2022-11-26T07:21:18.440Z,6.00
2022-11-26T07:23:46.985Z,6.00
2022-11-26T07:26:16.777Z,5.80
2022-11-26T07:28:47.166Z,5.77
2022-11-26T07:31:19.867Z,5.23
2022-11-26T07:33:48.998Z,5.80
2022-11-26T07:36:23.199Z,6.00
2022-11-26T07:38:52.047Z,6.63
2022-11-26T07:41:21.297Z,6.60
2022-11-26T07:43:49.891Z,7.00
2022-11-26T07:46:23.270Z,6.67
2022-11-26T07:48:52.410Z,6.20
2022-11-26T07:51:23.972Z,6.47
2022-11-26T07:53:53.132Z,6.57
2022-11-26T07:56:21.725Z,6.97
2022-11-26T07:58:50.199Z,7.03
2022-11-26T08:01:27.063Z,7.03
2022-11-26T08:03:55.639Z,6.80
2022-11-26T08:06:27.895Z,8.03
2022-11-26T08:08:56.282Z,7.30
2022-11-26T08:11:26.874Z,6.57
2022-11-26T08:13:56.401Z,6.83
2022-11-26T08:16:28.788Z,6.80
2022-11-26T08:18:59.446Z,6.57
2022-11-26T08:21:28.201Z,6.73
2022-11-26T08:23:56.942Z,5.83
2022-11-26T08:26:35.091Z,5.87
2022-11-26T08:29:04.568Z,6.27
2022-11-26T08:31:34.967Z,6.50
2022-11-26T08:34:04.413Z,5.90
2022-11-26T08:36:33.173Z,6.67
2022-11-26T08:39:02.370Z,5.70
2022-11-26T08:41:30.638Z,6.00
2022-11-26T08:44:07.854Z,4.83
2022-11-26T08:46:39.154Z,5.40
2022-11-26T08:49:10.515Z,4.70
2022-11-26T08:51:39.071Z,5.03
2022-11-26T08:54:07.447Z,5.27
2022-11-26T08:56:35.745Z,5.33
2022-11-26T08:59:04.393Z,5.67
2022-11-26T09:01:34.770Z,5.27
2022-11-26T09:04:05.942Z,5.33
2022-11-26T09:06:37.733Z,5.00
2022-11-26T09:09:17.694Z,5.97
2022-11-26T09:11:50.149Z,6.03
2022-11-26T09:14:21.140Z,6.27
2022-11-26T09:16:49.470Z,6.20
2022-11-26T09:19:20.053Z,6.40
2022-11-26T09:21:48.985Z,6.40
2022-11-26T09:24:18.423Z,6.20
2022-11-26T09:26:48.352Z,6.37
2022-11-26T09:29:19.663Z,6.43
2022-11-26T09:32:21.311Z,5.93
2022-11-26T09:34:39.111Z,6.00
2022-11-26T09:37:08.000Z,6.47
2022-11-26T09:39:36.346Z,7.37
2022-11-26T09:42:09.107Z,6.80
2022-11-26T09:44:56.791Z,7.70
2022-11-26T09:47:27.881Z,6.90
2022-11-26T09:50:09.234Z,7.07
2022-11-26T09:52:42.640Z,7.40
2022-11-26T09:55:19.951Z,7.37
2022-11-26T09:57:59.228Z,7.90
2022-11-26T10:00:30.667Z,8.47
2022-11-26T10:03:00.080Z,7.43
2022-11-26T10:05:45.019Z,8.13
2022-11-26T10:08:33.266Z,8.87
2022-11-26T10:11:09.862Z,8.80
2022-11-26T10:13:46.286Z,9.30
2022-11-26T10:16:26.511Z,8.97
2022-11-26T10:19:04.105Z,8.97
2022-11-26T10:21:58.155Z,8.53
2022-11-26T10:24:32.246Z,8.73
2022-11-26T10:27:05.650Z,9.00
2022-11-26T10:29:39.717Z,9.43
2022-11-26T10:32:17.531Z,9.43
2022-11-26T10:34:51.897Z,8.97
2022-11-26T10:37:24.246Z,9.40
2022-11-26T10:40:02.061Z,9.23
2022-11-26T10:42:42.742Z,9.70
2022-11-26T10:45:20.167Z,10.60
2022-11-26T10:47:48.479Z,8.53
2022-11-26T10:53:23.044Z,8.63
2022-11-26T10:55:53.305Z,9.33
2022-11-26T10:58:24.809Z,8.87
2022-11-26T11:01:00.024Z,8.67
2022-11-26T11:04:05.944Z,8.87
2022-11-26T11:06:39.851Z,9.13
2022-11-26T11:09:29.009Z,9.20
2022-11-26T11:12:21.990Z,9.10
2022-11-26T11:14:51.955Z,8.07
2022-11-26T11:17:36.586Z,9.10
2022-11-26T11:20:30.461Z,9.13
2022-11-26T11:23:03.696Z,8.63
2022-11-26T11:25:35.735Z,8.43
2022-11-26T11:28:12.280Z,8.50
2022-11-26T11:30:42.948Z,7.97
2022-11-26T11:33:20.192Z,7.50
2022-11-26T11:36:07.303Z,8.83
2022-11-26T11:38:48.886Z,7.73
2022-11-26T11:41:28.543Z,8.27
2022-11-26T11:44:13.336Z,8.47
2022-11-26T11:47:14.572Z,8.80
2022-11-26T11:49:58.681Z,10.23
2022-11-26T11:52:38.093Z,10.10
2022-11-26T11:55:20.494Z,10.00
2022-11-26T11:58:13.535Z,9.33
2022-11-26T12:00:50.979Z,9.60
2022-11-26T12:03:52.881Z,8.77
2022-11-26T12:06:36.742Z,9.57
2022-11-26T12:09:20.044Z,8.80
2022-11-26T12:11:57.469Z,9.57
2022-11-26T12:14:35.745Z,12.73
2022-11-26T12:17:13.946Z,11.00
2022-11-26T12:19:48.740Z,9.50
2022-11-26T12:22:21.766Z,9.90
2022-11-26T12:24:55.576Z,9.00
2022-11-26T12:27:32.804Z,9.87
2022-11-26T12:30:06.754Z,9.73
2022-11-26T12:32:40.979Z,8.50
2022-11-26T12:35:17.058Z,9.77
2022-11-26T12:37:46.742Z,8.57
2022-11-26T12:40:29.339Z,9.27
2022-11-26T12:43:04.963Z,8.87
2022-11-26T12:45:46.051Z,8.50
2022-11-26T12:48:28.939Z,8.07
2022-11-26T12:51:02.505Z,7.53
2022-11-26T12:53:42.862Z,7.97
2022-11-26T12:56:21.099Z,8.00
2022-11-26T12:59:00.458Z,8.33
2022-11-26T13:01:30.769Z,8.73
2022-11-26T13:04:22.034Z,9.03
2022-11-26T13:07:08.951Z,8.40
2022-11-26T13:09:54.550Z,8.13
2022-11-26T13:12:32.128Z,8.57
2022-11-26T13:15:10.818Z,8.33
2022-11-26T13:17:44.855Z,8.10
2022-11-26T13:20:44.592Z,8.83
2022-11-26T13:23:43.124Z,8.63
2022-11-26T13:26:39.242Z,8.23
2022-11-26T13:29:34.844Z,7.90
2022-11-26T13:32:34.116Z,7.87
2022-11-26T13:35:19.476Z,8.93
2022-11-26T13:38:16.529Z,8.30
2022-11-26T13:41:13.400Z,8.17
2022-11-26T13:44:33.418Z,8.33
2022-11-26T13:47:05.730Z,8.80
2022-11-26T13:49:39.022Z,8.33
2022-11-26T13:52:15.155Z,8.17
2022-11-26T13:54:51.160Z,7.70
2022-11-26T13:57:25.444Z,8.97
2022-11-26T13:59:56.651Z,7.97
2022-11-26T14:02:47.423Z,8.33
2022-11-26T14:05:17.537Z,7.70
2022-11-26T14:07:47.807Z,8.57
2022-11-26T14:10:44.356Z,8.87
2022-11-26T14:13:17.502Z,9.10
2022-11-26T14:16:00.128Z,8.80
2022-11-26T14:19:00.726Z,9.60
2022-11-26T14:21:31.174Z,8.10
2022-11-26T14:24:02.492Z,8.73
2022-11-26T14:26:37.339Z,7.93
2022-11-26T14:29:17.509Z,7.93
2022-11-26T14:31:52.135Z,7.83
2022-11-26T14:34:27.189Z,8.10
2022-11-26T14:36:58.708Z,7.77
2022-11-26T14:39:29.277Z,7.40
2022-11-26T14:42:05.507Z,7.53
2022-11-26T14:44:34.746Z,7.53
2022-11-26T14:47:12.375Z,7.33
2022-11-26T14:49:46.854Z,7.13
2022-11-26T14:52:23.119Z,6.50
2022-11-26T14:54:57.645Z,7.43
2022-11-26T14:57:31.872Z,7.60
2022-11-26T15:00:03.001Z,6.23
2022-11-26T15:02:32.941Z,5.90
2022-11-26T15:05:15.250Z,4.43
2022-11-26T15:07:43.988Z,4.20
2022-11-26T15:10:23.143Z,4.40
2022-11-26T15:12:53.745Z,3.83
2022-11-26T15:15:24.821Z,3.50
2022-11-26T15:17:57.778Z,4.10
2022-11-26T15:20:26.538Z,3.90
2022-11-26T15:22:57.508Z,3.90
2022-11-26T15:25:30.367Z,3.63
2022-11-26T15:28:01.217Z,3.20
2022-11-26T15:30:31.926Z,3.07
2022-11-26T15:33:03.448Z,2.87
2022-11-26T15:35:33.327Z,2.87
2022-11-26T15:38:01.993Z,2.80
2022-11-26T15:40:45.467Z,2.63
2022-11-26T15:43:22.816Z,2.90
2022-11-26T15:45:53.425Z,5.10
2022-11-26T15:48:36.355Z,8.83
2022-11-26T15:51:17.694Z,4.03
2022-11-26T15:53:49.250Z,4.03
2022-11-26T15:56:21.233Z,3.20
2022-11-26T15:58:53.704Z,3.00
2022-11-26T16:03:53.745Z,7.90
2022-11-26T16:06:34.596Z,4.03
2022-11-26T16:09:26.324Z,2.90
2022-11-26T16:12:01.799Z,4.70
2022-11-26T16:14:36.405Z,12.83
2022-11-26T16:17:11.322Z,12.30
2022-11-26T16:19:46.078Z,9.80
2022-11-26T16:22:17.850Z,11.73
2022-11-26T16:24:46.611Z,8.70
2022-11-26T16:27:30.496Z,6.67
2022-11-26T16:29:59.424Z,7.20
2022-11-26T16:32:27.706Z,7.77
2022-11-26T16:34:56.006Z,7.73
2022-11-26T16:37:26.922Z,7.50
2022-11-26T16:40:02.793Z,7.40
2022-11-26T16:42:33.628Z,8.00
2022-11-26T16:45:04.344Z,7.03
2022-11-26T16:47:36.123Z,6.77
2022-11-26T16:50:05.757Z,5.67
2022-11-26T16:52:36.472Z,5.77
2022-11-26T16:55:05.243Z,7.13
2022-11-26T16:57:35.000Z,7.13
2022-11-26T17:00:06.904Z,7.70
2022-11-26T17:02:35.474Z,7.40
2022-11-26T17:05:04.857Z,7.07
2022-11-26T17:07:40.517Z,8.57
2022-11-26T17:10:15.498Z,10.87
2022-11-26T17:12:45.586Z,11.53
2022-11-26T17:15:14.345Z,11.87
2022-11-26T17:17:43.279Z,10.70
2022-11-26T17:20:19.131Z,11.27
2022-11-26T17:22:48.015Z,9.30
2022-11-26T17:25:16.673Z,7.40
2022-11-26T17:27:47.313Z,6.87
2022-11-26T17:30:18.905Z,6.40
2022-11-26T17:32:47.436Z,10.40
2022-11-26T17:35:16.140Z,10.47
2022-11-26T17:37:44.831Z,7.40
2022-11-26T17:40:18.717Z,6.87
2022-11-26T17:42:48.864Z,5.53
2022-11-26T17:45:18.411Z,5.83
2022-11-26T17:47:47.446Z,7.33
2022-11-26T17:50:21.314Z,6.70
2022-11-26T17:52:50.645Z,6.17
2022-11-26T17:55:20.237Z,5.73
2022-11-26T17:57:50.391Z,19.50
2022-11-26T18:00:21.885Z,12.87
2022-11-26T18:02:50.289Z,9.07
2022-11-26T18:05:18.866Z,8.20
2022-11-26T18:07:47.693Z,10.23
2022-11-26T18:10:18.739Z,9.13
2022-11-26T18:12:47.164Z,6.10
2022-11-26T18:15:21.330Z,10.00
2022-11-26T18:17:51.527Z,9.03
2022-11-26T18:20:22.448Z,12.73
2022-11-26T18:22:52.854Z,12.00
2022-11-26T18:25:21.358Z,11.50
2022-11-26T18:27:49.820Z,10.20
2022-11-26T18:30:20.860Z,8.17
2022-11-26T18:32:49.270Z,6.87
2022-11-26T18:35:18.035Z,6.33
2022-11-26T18:37:46.345Z,5.63
2022-11-26T18:40:18.015Z,6.50
2022-11-26T18:42:46.832Z,7.20
2022-11-26T18:45:16.868Z,10.73
2022-11-26T18:47:46.549Z,8.33
2022-11-26T18:50:14.870Z,7.50
2022-11-26T18:52:43.236Z,5.17
2022-11-26T18:55:14.234Z,5.90
2022-11-26T18:57:42.562Z,8.73
2022-11-26T19:00:12.429Z,10.17
2022-11-26T19:02:40.752Z,10.83
2022-11-26T19:05:11.410Z,9.17
2022-11-26T19:07:40.330Z,8.97
2022-11-26T19:10:10.225Z,8.40
2022-11-26T19:12:38.645Z,9.93
2022-11-26T19:15:08.363Z,10.80
2022-11-26T19:17:36.707Z,9.20
2022-11-26T19:20:06.378Z,10.37
2022-11-26T19:22:36.139Z,6.53
2022-11-26T19:25:04.614Z,6.77
2022-11-26T19:27:32.969Z,6.37
2022-11-26T19:30:01.300Z,6.27
2022-11-26T19:32:29.931Z,6.20
2022-11-26T19:35:02.653Z,5.80
2022-11-26T19:37:35.417Z,6.37
2022-11-26T19:40:04.366Z,6.40
2022-11-26T19:42:32.759Z,6.67
2022-11-26T19:45:01.083Z,6.77
2022-11-26T19:47:29.377Z,9.03
2022-11-26T19:49:57.699Z,7.50
2022-11-26T19:52:25.960Z,8.93
2022-11-26T19:54:55.631Z,13.10
2022-11-26T19:57:24.139Z,17.73
2022-11-26T19:59:52.665Z,18.47
2022-11-26T20:02:20.986Z,17.20
2022-11-26T20:04:49.312Z,13.93
2022-11-26T20:07:17.843Z,13.10
2022-11-26T20:09:46.215Z,12.83
2022-11-26T20:12:15.992Z,10.60
2022-11-26T20:14:44.374Z,9.87
2022-11-26T20:17:12.912Z,10.10
2022-11-26T20:19:41.566Z,9.80
2022-11-26T20:22:10.326Z,12.47
2022-11-26T20:24:38.710Z,10.67
2022-11-26T20:27:07.120Z,11.80
2022-11-26T20:29:36.916Z,11.20
2022-11-26T20:32:05.470Z,11.77
2022-11-26T20:34:33.978Z,11.73
2022-11-26T20:37:03.466Z,12.47
2022-11-26T20:39:31.936Z,12.33
2022-11-26T20:42:00.237Z,12.37
2022-11-26T20:44:28.658Z,11.40
2022-11-26T20:46:58.330Z,11.70
2022-11-26T20:49:30.780Z,11.87
2022-11-26T20:52:01.939Z,12.70
2022-11-26T20:54:30.207Z,12.67
2022-11-26T20:56:58.674Z,13.93
2022-11-26T20:59:27.181Z,13.93
2022-11-26T21:01:56.987Z,14.27
2022-11-26T21:04:25.338Z,14.00
2022-11-26T21:06:53.642Z,14.53
2022-11-26T21:09:21.961Z,15.17
2022-11-26T21:11:50.229Z,14.03
2022-11-26T21:14:18.500Z,13.70
2022-11-26T21:16:46.814Z,14.43
2022-11-26T21:19:16.575Z,14.13
2022-11-26T21:21:44.799Z,13.90
2022-11-26T21:24:14.527Z,13.43
2022-11-26T21:26:42.763Z,12.63
2022-11-26T21:29:11.102Z,13.10
2022-11-26T21:31:40.140Z,13.57
2022-11-26T21:34:09.549Z,13.83
2022-11-26T21:36:39.287Z,13.97
2022-11-26T21:39:07.592Z,12.90
2022-11-26T21:41:35.883Z,13.40
2022-11-26T21:44:04.412Z,13.17
2022-11-26T21:46:37.813Z,11.47
2022-11-26T21:49:07.260Z,12.03
2022-11-26T21:51:35.614Z,12.70
2022-11-26T21:54:05.823Z,12.70
2022-11-26T21:56:34.488Z,9.50
2022-11-26T21:59:03.401Z,8.50
2022-11-26T22:04:12.093Z,8.30
2022-11-26T22:06:40.991Z,7.90
2022-11-26T22:09:11.181Z,8.80
2022-11-26T22:11:42.403Z,9.20
2022-11-26T22:14:14.799Z,8.57
2022-11-26T22:16:43.797Z,8.37
2022-11-26T22:19:12.133Z,7.30
2022-11-26T22:21:42.575Z,8.80
2022-11-26T22:24:16.883Z,14.40
2022-11-26T22:26:45.915Z,14.50
2022-11-26T22:29:16.874Z,15.23
2022-11-26T22:31:45.739Z,11.30
2022-11-26T22:34:16.026Z,10.33
2022-11-26T22:36:45.634Z,35.23
2022-11-26T22:39:18.157Z,14.03
2022-11-26T22:41:47.931Z,10.77
2022-11-26T22:44:17.305Z,9.03
2022-11-26T22:46:46.090Z,8.67
2022-11-26T22:49:17.807Z,8.97
2022-11-26T22:51:47.404Z,8.83
2022-11-26T22:54:19.175Z,10.20
2022-11-26T22:56:47.932Z,8.97
2022-11-26T22:59:16.274Z,9.53
2022-11-26T23:01:44.650Z,8.93
2022-11-26T23:04:13.241Z,9.30
2022-11-26T23:06:41.615Z,9.37
2022-11-26T23:09:13.406Z,9.33
2022-11-26T23:11:44.514Z,8.33
2022-11-26T23:14:12.961Z,8.57
2022-11-26T23:16:43.279Z,9.00
2022-11-26T23:19:15.225Z,11.17
2022-11-26T23:21:44.844Z,12.03
2022-11-26T23:24:15.417Z,13.03
2022-11-26T23:26:46.255Z,12.77
2022-11-26T23:29:15.236Z,12.70
2022-11-26T23:31:45.802Z,13.03
2022-11-26T23:34:14.966Z,10.47
2022-11-26T23:36:43.821Z,10.00
2022-11-26T23:39:13.696Z,11.33
2022-11-26T23:41:42.042Z,11.87
2022-11-26T23:44:11.786Z,11.30
2022-11-26T23:46:40.183Z,10.30
2022-11-26T23:49:08.541Z,9.87
2022-11-26T23:51:36.836Z,10.80
2022-11-26T23:54:05.460Z,8.37
2022-11-26T23:56:35.727Z,10.60
2022-11-26T23:59:05.607Z,9.93
